»·PEaware :: UAL576 KIDA-KBIS

UAL576 :: KIDA-KBIS

FLIGHT INFORMATION

Flight Status: Arrived
Operator:
United Airlines
More flights by this operator :: More flights under this callsign
Pilot: Anonymous 8274 (8274)
Aircraft: BOEING 737-300
(B733)
More flights by this aircraft type
Origin: KIDA Idaho Falls Regl
United States
Destination: KBIS Bismarck Mun
United States
More flights between these airports :: More routes between these airports
Route: + SLATE HOWWY CHARK ISMAY SAYOR KU12W DIK V2 BIS
File this flight plan on PilotEdge
Remarks:
Altitude:
(Current/Filed)
33,000ft
Speed:
(Current/Filed)
460kts
Departed: 08-Dec-18 04:34 PM
Arrived: 08-Dec-18 06:27 PM
Distance/Time
Traveled:
517nm/1:53
Distance/Time
To Go:
Arrived

Flight Plot

Page will automatically refresh every two minutes.

Flight plan parsing failed; only flown route is shown


Map Options




Map Legend


Flown Route
Filed Route
Departure Airport
Arrival Airport
Navaid (VOR, NDB)
Fix

Horizontal Profiles

Position Reports

Time Latitude Longitude Heading Altitude Ground
Speed
08-Dec-18 15:48 43.515311 -112.068307 124 4745ft 0kts
08-Dec-18 15:48 43.515311 -112.068307 124 4745ft 0kts
08-Dec-18 15:50 43.515311 -112.068307 124 4745ft 0kts
08-Dec-18 15:50 43.515311 -112.068307 124 4745ft 0kts
08-Dec-18 15:51 43.515311 -112.068307 124 4745ft 0kts
08-Dec-18 15:52 43.515311 -112.068307 124 4745ft 0kts
08-Dec-18 15:54 43.515311 -112.068307 124 4745ft 0kts
08-Dec-18 15:54 43.515311 -112.068307 124 4745ft 0kts
08-Dec-18 15:55 43.515311 -112.068307 124 4745ft 0kts
08-Dec-18 15:56 43.515311 -112.068307 124 4745ft 0kts
08-Dec-18 15:57 43.515311 -112.068307 124 4745ft 0kts
08-Dec-18 15:58 43.515311 -112.068307 124 4745ft 0kts
08-Dec-18 15:59 43.515311 -112.068307 124 4745ft 0kts
08-Dec-18 16:00 43.515311 -112.068307 124 4745ft 0kts
08-Dec-18 16:01 43.515311 -112.068307 124 4745ft 0kts
08-Dec-18 16:02 43.515311 -112.068307 124 4745ft 0kts
08-Dec-18 16:03 43.515311 -112.068307 124 4745ft 0kts
08-Dec-18 16:04 43.515311 -112.068307 124 4745ft 0kts
08-Dec-18 16:05 43.515311 -112.068307 124 4745ft 0kts
08-Dec-18 16:06 43.515311 -112.068307 124 4745ft 0kts
08-Dec-18 16:07 43.515311 -112.068307 124 4745ft 0kts
08-Dec-18 16:08 43.515311 -112.068307 124 4745ft 0kts
08-Dec-18 16:09 43.515311 -112.068307 124 4745ft 0kts
08-Dec-18 16:10 43.515311 -112.068307 124 4745ft 0kts
08-Dec-18 16:11 43.515311 -112.068307 124 4745ft 0kts
08-Dec-18 16:12 43.515311 -112.068307 124 4745ft 0kts
08-Dec-18 16:13 43.515311 -112.068307 124 4745ft 0kts
08-Dec-18 16:14 43.515311 -112.068307 124 4745ft 0kts
08-Dec-18 16:15 43.515311 -112.068307 124 4745ft 0kts
08-Dec-18 16:16 43.515311 -112.068307 124 4745ft 0kts
08-Dec-18 16:17 43.515311 -112.068307 124 4745ft 0kts
08-Dec-18 16:18 43.515311 -112.068307 124 4745ft 0kts
08-Dec-18 16:19 43.515311 -112.068307 124 4745ft 0kts
08-Dec-18 16:20 43.515736 -112.068505 200 4745ft 2kts
08-Dec-18 16:21 43.515967 -112.067839 291 4745ft 2kts
08-Dec-18 16:22 43.515927 -112.067730 298 4745ft 0kts
08-Dec-18 16:23 43.515928 -112.067731 298 4745ft 0kts
08-Dec-18 16:24 43.515928 -112.067731 298 4745ft 0kts
08-Dec-18 16:25 43.515970 -112.067840 298 4745ft 0kts
08-Dec-18 16:26 43.517478 -112.067115 38 4745ft 10kts
08-Dec-18 16:27 43.520162 -112.064226 37 4745ft 14kts
08-Dec-18 16:28 43.521268 -112.063375 330 4745ft 0kts
08-Dec-18 16:29 43.521268 -112.063375 330 4745ft 0kts
08-Dec-18 16:30 43.521268 -112.063375 330 4745ft 0kts
08-Dec-18 16:31 43.521268 -112.063375 330 4745ft 0kts
08-Dec-18 16:32 43.521611 -112.063936 304 4745ft 6kts
08-Dec-18 16:33 43.519845 -112.066479 218 4745ft 62kts
08-Dec-18 16:34 43.489763 -112.096382 212 5749ft 157kts
08-Dec-18 16:35 43.446023 -112.136621 214 7191ft 227kts
08-Dec-18 16:36 43.388690 -112.190183 214 9432ft 276kts
08-Dec-18 16:37 43.317619 -112.174517 116 11075ft 342kts
08-Dec-18 16:38 43.356514 -112.072207 19 14006ft 355kts
08-Dec-18 16:39 43.429770 -111.985716 59 16630ft 370kts
08-Dec-18 16:40 43.482211 -111.861593 59 19057ft 384kts
08-Dec-18 16:41 43.536984 -111.732555 59 21272ft 398kts
08-Dec-18 16:42 43.593236 -111.599504 59 23295ft 411kts
08-Dec-18 16:43 43.651201 -111.461756 59 25112ft 424kts
08-Dec-18 16:44 43.710268 -111.320651 60 26749ft 437kts
08-Dec-18 16:45 43.770552 -111.175805 60 28339ft 446kts
08-Dec-18 16:46 43.831690 -111.028303 57 30252ft 442kts
08-Dec-18 16:47 43.894966 -110.875021 55 30553ft 478kts
08-Dec-18 16:48 43.962847 -110.709530 55 30819ft 514kts
08-Dec-18 16:49 44.035773 -110.531546 54 31088ft 549kts
08-Dec-18 16:50 44.143432 -110.387802 42 31338ft 574kts
08-Dec-18 16:51 44.255521 -110.238645 59 33297ft 539kts
08-Dec-18 16:52 44.340030 -110.131241 49 35527ft 303kts
08-Dec-18 16:53 44.393465 -110.050811 37 33944ft 268kts
08-Dec-18 16:54 44.445597 -109.981001 52 33272ft 268kts
08-Dec-18 16:55 44.502413 -109.905958 52 33282ft 296kts
08-Dec-18 16:56 44.561750 -109.825974 51 33318ft 297kts
08-Dec-18 16:57 44.609447 -109.761256 52 33281ft 298kts
08-Dec-18 16:58 44.668630 -109.680732 51 33315ft 297kts
08-Dec-18 16:59 44.727665 -109.600111 51 33318ft 297kts
08-Dec-18 17:00 44.786873 -109.518997 52 33266ft 301kts
08-Dec-18 17:01 44.846358 -109.437302 52 33262ft 300kts
08-Dec-18 17:02 44.905858 -109.355323 52 33263ft 300kts
08-Dec-18 17:03 44.964296 -109.274385 53 33265ft 299kts
08-Dec-18 17:04 45.023440 -109.192360 53 33265ft 300kts
08-Dec-18 17:05 45.082662 -109.110015 53 33265ft 299kts
08-Dec-18 17:06 45.139927 -109.030453 53 33271ft 300kts
08-Dec-18 17:07 45.199108 -108.947786 53 33264ft 300kts
08-Dec-18 17:08 45.260287 -108.865265 51 33288ft 313kts
08-Dec-18 17:09 45.324171 -108.782494 50 33289ft 312kts
08-Dec-18 17:10 45.387939 -108.699974 50 33291ft 312kts
08-Dec-18 17:11 45.451719 -108.617214 50 33291ft 312kts
08-Dec-18 17:12 45.515260 -108.534505 50 33291ft 312kts
08-Dec-18 17:13 45.579132 -108.451101 50 33291ft 312kts
08-Dec-18 17:14 45.642578 -108.367985 50 33291ft 312kts
08-Dec-18 17:15 45.704220 -108.286813 51 33295ft 311kts
08-Dec-18 17:16 45.767556 -108.203263 51 33291ft 311kts
08-Dec-18 17:17 45.830804 -108.119607 51 33291ft 311kts
08-Dec-18 17:18 45.893840 -108.035967 51 33291ft 311kts
08-Dec-18 17:19 45.957092 -107.951765 51 33291ft 311kts
08-Dec-18 17:20 46.020237 -107.867435 51 33291ft 311kts
08-Dec-18 17:21 46.083332 -107.782896 51 33291ft 311kts
08-Dec-18 17:22 46.136383 -107.692368 74 33294ft 301kts
08-Dec-18 17:23 46.141946 -107.571092 81 33292ft 306kts
08-Dec-18 17:24 46.146298 -107.449019 80 33291ft 306kts
08-Dec-18 17:25 46.150512 -107.328717 82 33250ft 305kts
08-Dec-18 17:26 46.154636 -107.206925 82 33264ft 305kts
08-Dec-18 17:27 46.158635 -107.085654 82 33264ft 305kts
08-Dec-18 17:28 46.162524 -106.963872 82 33264ft 305kts
08-Dec-18 17:29 46.166271 -106.842496 82 33264ft 305kts
08-Dec-18 17:30 46.169887 -106.721178 82 33264ft 305kts
08-Dec-18 17:31 46.173381 -106.599643 82 33264ft 305kts
08-Dec-18 17:32 46.178257 -106.478692 72 33252ft 300kts
08-Dec-18 17:33 46.233322 -106.385885 52 33263ft 313kts
08-Dec-18 17:34 46.295449 -106.300456 52 33268ft 312kts
08-Dec-18 17:35 46.358021 -106.214328 52 33264ft 312kts
08-Dec-18 17:36 46.420557 -106.128039 52 33264ft 312kts
08-Dec-18 17:37 46.483068 -106.041504 52 33264ft 312kts
08-Dec-18 17:39 46.545315 -105.955051 52 33264ft 312kts
08-Dec-18 17:40 46.607888 -105.867853 52 33264ft 312kts
08-Dec-18 17:41 46.670048 -105.780939 52 33264ft 312kts
08-Dec-18 17:42 46.732297 -105.693606 52 33264ft 312kts
08-Dec-18 17:43 46.794531 -105.606003 52 33264ft 312kts
08-Dec-18 17:44 46.856682 -105.518218 52 33263ft 312kts
08-Dec-18 17:45 46.918744 -105.430260 52 33264ft 312kts
08-Dec-18 17:46 46.980072 -105.343040 53 33260ft 312kts
08-Dec-18 17:47 47.041908 -105.254634 53 33263ft 311kts
08-Dec-18 17:48 47.103026 -105.167111 53 33260ft 312kts
08-Dec-18 17:49 47.164904 -105.078598 53 33263ft 311kts
08-Dec-18 17:50 47.220683 -104.984864 71 33263ft 300kts
08-Dec-18 17:51 47.205920 -104.861191 97 33268ft 323kts
08-Dec-18 17:52 47.176812 -104.737183 97 33263ft 322kts
08-Dec-18 17:53 47.147745 -104.613475 97 33264ft 322kts
08-Dec-18 17:54 47.118480 -104.489595 97 33264ft 322kts
08-Dec-18 17:55 47.089195 -104.366309 97 33254ft 322kts
08-Dec-18 17:56 47.060008 -104.244075 98 33235ft 320kts
08-Dec-18 17:56 47.035415 -104.141628 98 33237ft 320kts
08-Dec-18 17:58 47.001110 -103.998604 94 33233ft 316kts
08-Dec-18 17:59 46.986570 -103.874497 90 33238ft 309kts
08-Dec-18 17:59 46.975288 -103.771377 90 33237ft 309kts
08-Dec-18 18:01 46.959389 -103.626943 90 33237ft 309kts
08-Dec-18 18:01 46.947906 -103.523640 90 33237ft 309kts
08-Dec-18 18:02 46.934031 -103.399964 90 33237ft 309kts
08-Dec-18 18:03 46.920083 -103.276932 91 33208ft 308kts
08-Dec-18 18:05 46.903643 -103.133390 91 33210ft 308kts
08-Dec-18 18:05 46.891771 -103.032248 91 33208ft 308kts
08-Dec-18 18:06 46.877298 -102.908981 91 33210ft 308kts
08-Dec-18 18:07 46.862814 -102.786168 91 33210ft 308kts
08-Dec-18 18:08 46.855966 -102.663648 87 33210ft 304kts
08-Dec-18 18:09 46.851040 -102.540320 87 33209ft 304kts
08-Dec-18 18:10 46.846203 -102.417216 87 33210ft 305kts
08-Dec-18 18:11 46.841130 -102.294905 87 33237ft 306kts
08-Dec-18 18:12 46.836020 -102.170719 86 33237ft 306kts
08-Dec-18 18:13 46.830851 -102.047597 86 33237ft 306kts
08-Dec-18 18:14 46.825537 -101.924138 86 33237ft 306kts
08-Dec-18 18:15 46.822429 -101.808371 109 31384ft 295kts
08-Dec-18 18:16 46.838462 -101.655095 85 26453ft 415kts
08-Dec-18 18:17 46.841815 -101.504969 89 24718ft 373kts
08-Dec-18 18:18 46.833163 -101.354472 94 20355ft 389kts
08-Dec-18 18:19 46.829398 -101.199061 88 16084ft 385kts
08-Dec-18 18:20 46.833661 -101.050664 87 12783ft 355kts
08-Dec-18 18:21 46.834358 -100.907510 89 9052ft 333kts
08-Dec-18 18:22 46.860204 -100.781465 51 4864ft 333kts
08-Dec-18 18:23 46.882576 -100.805485 184 5558ft 182kts
08-Dec-18 18:24 46.828153 -100.804573 169 3620ft 197kts
08-Dec-18 18:25 46.781734 -100.758789 137 1672ft 208kts
08-Dec-18 18:26 46.768913 -100.742293 133 1654ft 0kts
08-Dec-18 18:27 46.780790 -100.757500 135 1674ft 206kts
08-Dec-18 18:28 46.768913 -100.742293 133 1654ft 0kts
08-Dec-18 18:29 46.768913 -100.742293 133 1654ft 0kts
08-Dec-18 18:30 46.768913 -100.742293 133 1654ft 0kts
08-Dec-18 18:31 46.768913 -100.742293 133 1654ft 0kts
08-Dec-18 18:32 46.768913 -100.742293 133 1654ft 0kts
08-Dec-18 18:33 46.768913 -100.742293 133 1654ft 0kts
08-Dec-18 18:34 46.768913 -100.742293 133 1654ft 0kts
08-Dec-18 18:35 46.768913 -100.742293 133 1654ft 0kts
08-Dec-18 18:36 46.768913 -100.742293 133 1654ft 0kts
08-Dec-18 18:37 46.768913 -100.742293 133 1654ft 0kts
08-Dec-18 18:38 46.768913 -100.742293 133 1654ft 0kts
08-Dec-18 18:39 46.768913 -100.742293 133 1654ft 0kts
08-Dec-18 18:40 46.768913 -100.742293 133 1654ft 0kts
08-Dec-18 18:41 46.768913 -100.742293 133 1654ft 0kts

Navigation Log

Ident Type
Flight plan parsing failed, navigation log unavailable